Time;durP1;ratioP1;P1;durP2;ratioP2;P2;SDS_P1;SDS_P2;PMS_P1;PMS_P2;Temp;Humidity;BMP_temperature;BMP_pressure;BME280_temperature;BME280_humidity;BME280_pressure;Samples;Min_cycle;Max_cycle;Signal;HPM_P1;HPM_P2
2023/12/29 00:01:52;;;;;;;14.95;3.45;;;10.80;99.90;;;;;;5063009;28;20194;-48
2023/12/29 00:04:17;;;;;;;14.95;2.88;;;10.90;99.90;;;;;;5060695;28;20239;-51
2023/12/29 00:06:43;;;;;;;19.52;3.53;;;10.90;99.90;;;;;;5062558;28;20529;-46
2023/12/29 00:09:09;;;;;;;17.77;3.70;;;10.90;99.90;;;;;;5062996;28;20193;-49
2023/12/29 00:11:35;;;;;;;18.05;3.78;;;10.90;99.90;;;;;;5061652;28;20197;-49
2023/12/29 00:14:01;;;;;;;18.88;3.35;;;10.90;99.90;;;;;;5061193;28;20191;-54
2023/12/29 00:16:30;;;;;;;18.35;3.80;;;11.00;99.90;;;;;;5062254;28;20182;-48
2023/12/29 00:18:56;;;;;;;17.17;3.53;;;11.00;99.90;;;;;;5046226;28;20194;-50
2023/12/29 00:21:21;;;;;;;20.55;3.83;;;11.00;99.90;;;;;;5062576;28;20209;-45
2023/12/29 00:23:48;;;;;;;13.10;4.05;;;11.00;99.90;;;;;;5063658;28;20186;-49
2023/12/29 00:26:17;;;;;;;17.02;3.58;;;11.00;99.90;;;;;;5065251;28;20194;-48
2023/12/29 00:28:44;;;;;;;16.65;4.40;;;11.00;99.90;;;;;;5054841;28;20191;-48
2023/12/29 00:31:15;;;;;;;20.20;4.20;;;11.00;99.90;;;;;;5066868;28;20500;-53
2023/12/29 00:33:44;;;;;;;17.70;3.75;;;11.00;99.90;;;;;;5046840;28;20183;-46
2023/12/29 00:36:17;;;;;;;24.55;4.13;;;11.00;99.90;;;;;;5065852;28;20198;-44
2023/12/29 00:38:43;;;;;;;19.52;4.18;;;11.00;99.90;;;;;;5067648;28;20286;-49
2023/12/29 00:41:10;;;;;;;14.98;3.85;;;11.00;99.90;;;;;;5064860;28;20220;-47
2023/12/29 00:43:36;;;;;;;18.23;4.03;;;10.90;99.90;;;;;;5065968;28;20190;-49
2023/12/29 00:46:03;;;;;;;18.38;3.45;;;10.90;99.90;;;;;;5066834;28;20274;-50
2023/12/29 00:48:30;;;;;;;17.98;3.85;;;10.90;99.90;;;;;;5080175;28;20741;-50
2023/12/29 00:50:56;;;;;;;18.63;3.53;;;10.90;99.90;;;;;;5065563;28;20186;-46
2023/12/29 00:53:22;;;;;;;13.90;3.20;;;10.90;99.90;;;;;;5048887;28;20179;-47
2023/12/29 00:55:48;;;;;;;18.75;3.63;;;10.90;99.90;;;;;;5064160;28;21148;-49
2023/12/29 00:58:14;;;;;;;18.15;3.92;;;10.80;99.90;;;;;;5064192;28;20190;-49
2023/12/29 01:00:40;;;;;;;12.60;2.95;;;10.80;99.90;;;;;;5063967;28;20284;-47
2023/12/29 01:03:06;;;;;;;18.73;3.58;;;10.80;99.90;;;;;;5064479;28;20670;-48
2023/12/29 01:05:32;;;;;;;17.60;3.97;;;10.80;99.90;;;;;;5064022;28;20195;-47
2023/12/29 01:07:58;;;;;;;17.95;3.83;;;10.80;99.90;;;;;;5065173;28;20220;-47
2023/12/29 01:10:24;;;;;;;19.27;3.63;;;10.80;99.90;;;;;;5064572;28;20202;-48
2023/12/29 01:12:49;;;;;;;15.20;2.88;;;10.80;99.90;;;;;;5051519;28;20186;-48
2023/12/29 01:15:15;;;;;;;18.90;3.10;;;10.80;99.90;;;;;;5046914;28;20559;-50
2023/12/29 01:17:41;;;;;;;16.10;3.55;;;10.80;99.90;;;;;;5063892;28;20830;-49
2023/12/29 01:20:08;;;;;;;15.70;3.13;;;10.80;99.90;;;;;;5062838;28;20190;-48
2023/12/29 01:22:33;;;;;;;16.23;3.75;;;10.70;99.90;;;;;;5064784;28;20281;-46
2023/12/29 01:25:00;;;;;;;16.48;3.40;;;10.70;99.90;;;;;;5047810;28;20671;-47
2023/12/29 01:27:27;;;;;;;17.20;3.92;;;10.70;99.90;;;;;;5081742;28;20206;-48
2023/12/29 01:29:53;;;;;;;15.02;4.00;;;10.70;99.90;;;;;;5080061;28;20639;-51
2023/12/29 01:32:19;;;;;;;20.55;3.97;;;10.60;99.90;;;;;;5063173;28;20198;-48
2023/12/29 01:34:45;;;;;;;24.85;4.00;;;10.60;99.90;;;;;;5066067;28;20272;-48
2023/12/29 01:37:11;;;;;;;20.17;4.13;;;10.60;99.90;;;;;;5062625;28;20190;-50
2023/12/29 01:39:37;;;;;;;22.20;3.60;;;10.60;99.90;;;;;;5081004;28;20270;-47
2023/12/29 01:42:03;;;;;;;15.45;3.72;;;10.60;99.90;;;;;;5066224;28;20233;-49
2023/12/29 01:44:29;;;;;;;26.83;3.95;;;10.60;99.90;;;;;;5064277;28;20217;-50
2023/12/29 01:46:59;;;;;;;19.63;3.80;;;10.60;99.90;;;;;;5062279;28;20206;-49
2023/12/29 01:49:27;;;;;;;23.98;4.88;;;10.60;99.90;;;;;;5065212;28;20198;-49
2023/12/29 01:51:57;;;;;;;23.60;4.22;;;10.60;99.90;;;;;;5064166;28;20270;-47
2023/12/29 01:54:25;;;;;;;21.38;4.32;;;10.60;99.90;;;;;;5063503;28;20179;-51
2023/12/29 01:56:55;;;;;;;17.83;3.78;;;10.60;99.90;;;;;;5046670;28;20247;-49
2023/12/29 01:59:21;;;;;;;23.60;4.07;;;10.60;99.90;;;;;;5080871;28;20190;-48
2023/12/29 02:01:47;;;;;;;14.25;3.13;;;10.60;99.90;;;;;;5063972;28;20201;-48
2023/12/29 02:04:15;;;;;;;10.73;2.58;;;10.60;99.90;;;;;;5063029;28;20182;-49
2023/12/29 02:06:41;;;;;;;9.38;2.20;;;10.60;99.90;;;;;;5062984;28;20210;-47
2023/12/29 02:09:07;;;;;;;8.05;2.00;;;10.50;99.90;;;;;;5065128;28;20182;-54
2023/12/29 02:11:33;;;;;;;9.25;1.98;;;10.50;99.90;;;;;;5062195;28;20202;-48
2023/12/29 02:14:00;;;;;;;9.55;1.92;;;10.50;99.90;;;;;;5065515;28;20185;-44
2023/12/29 02:16:37;;;;;;;7.43;1.90;;;10.50;99.90;;;;;;5080552;28;20226;-46
2023/12/29 02:19:32;;;;;;;6.63;1.83;;;10.50;99.90;;;;;;5052282;28;20231;-50
2023/12/29 02:21:58;;;;;;;4.15;1.30;;;10.50;99.90;;;;;;5079166;28;20201;-43
2023/12/29 02:24:24;;;;;;;8.75;1.58;;;10.40;99.90;;;;;;5065048;28;20190;-48
2023/12/29 02:26:59;;;;;;;6.00;1.80;;;10.50;99.90;;;;;;5045017;28;20206;-47
2023/12/29 02:29:26;;;;;;;4.03;1.67;;;10.40;99.90;;;;;;5079689;28;20183;-48
2023/12/29 02:31:56;;;;;;;6.70;1.70;;;10.40;99.90;;;;;;5063979;28;20188;-44
2023/12/29 02:34:23;;;;;;;7.20;1.73;;;10.40;99.90;;;;;;5062615;28;20249;-43
2023/12/29 02:36:51;;;;;;;9.13;2.20;;;10.40;99.90;;;;;;5062636;28;20195;-51
2023/12/29 02:39:17;;;;;;;13.20;2.90;;;10.30;99.90;;;;;;5063443;28;20203;-49
2023/12/29 02:41:43;;;;;;;16.08;2.78;;;10.30;99.90;;;;;;5062450;28;20226;-52
2023/12/29 02:44:09;;;;;;;13.50;2.92;;;10.30;99.90;;;;;;5046687;28;20200;-50
2023/12/29 02:46:35;;;;;;;12.57;2.85;;;10.30;99.90;;;;;;5065463;28;20738;-53
2023/12/29 02:49:01;;;;;;;16.00;3.05;;;10.10;99.90;;;;;;5062196;28;20273;-48
2023/12/29 02:51:27;;;;;;;16.80;2.85;;;10.00;99.90;;;;;;5064100;28;20213;-50
2023/12/29 02:53:53;;;;;;;14.18;2.38;;;10.00;99.90;;;;;;5065557;28;20330;-47
2023/12/29 02:56:19;;;;;;;16.50;3.25;;;9.90;99.90;;;;;;5062824;28;20182;-48
2023/12/29 02:58:48;;;;;;;14.88;2.72;;;9.90;99.90;;;;;;5062925;28;20191;-46
2023/12/29 03:01:14;;;;;;;16.15;3.30;;;9.90;99.90;;;;;;5064532;28;20179;-49
2023/12/29 03:03:40;;;;;;;18.70;3.40;;;9.90;99.90;;;;;;5063694;28;20190;-46
2023/12/29 03:06:06;;;;;;;18.85;3.50;;;9.90;99.90;;;;;;5063630;28;20189;-48
2023/12/29 03:08:32;;;;;;;13.75;3.20;;;9.90;99.90;;;;;;5077968;28;20218;-45
2023/12/29 03:10:59;;;;;;;27.92;3.70;;;9.90;99.90;;;;;;5063361;28;20186;-46
2023/12/29 03:13:24;;;;;;;23.38;3.75;;;9.90;99.90;;;;;;5063011;28;20183;-49
2023/12/29 03:15:50;;;;;;;23.90;4.60;;;10.00;99.90;;;;;;5062611;28;20537;-51
2023/12/29 03:18:16;;;;;;;30.85;4.80;;;9.90;99.90;;;;;;5061853;28;20202;-51
2023/12/29 03:20:42;;;;;;;29.92;4.47;;;9.90;99.90;;;;;;5063422;28;20215;-48
2023/12/29 03:23:08;;;;;;;30.35;5.15;;;10.00;99.90;;;;;;5062380;28;20324;-44
2023/12/29 03:25:34;;;;;;;27.95;4.82;;;10.00;99.90;;;;;;5063633;28;20611;-47
2023/12/29 03:28:00;;;;;;;31.05;5.47;;;10.00;99.90;;;;;;5078795;28;20259;-48
2023/12/29 03:30:26;;;;;;;29.15;5.35;;;10.10;99.90;;;;;;5077572;28;20709;-43
2023/12/29 03:32:52;;;;;;;32.15;5.05;;;10.10;99.90;;;;;;5063054;28;20936;-52
2023/12/29 03:35:18;;;;;;;26.23;4.88;;;10.10;99.90;;;;;;5062577;28;20650;-47
2023/12/29 03:37:44;;;;;;;27.55;4.57;;;10.20;99.90;;;;;;5062266;28;20198;-50
2023/12/29 03:40:10;;;;;;;32.70;5.35;;;10.20;99.90;;;;;;5044397;28;20197;-47
2023/12/29 03:42:38;;;;;;;30.02;5.07;;;10.30;99.90;;;;;;5061724;28;20236;-53
2023/12/29 03:45:04;;;;;;;35.08;4.88;;;10.30;99.90;;;;;;5061935;28;20194;-47
2023/12/29 03:47:31;;;;;;;30.20;4.47;;;10.30;99.90;;;;;;5078005;28;20210;-51
2023/12/29 03:49:57;;;;;;;26.00;5.10;;;10.40;99.90;;;;;;5060805;28;20191;-51
2023/12/29 03:52:23;;;;;;;31.42;5.32;;;10.40;99.90;;;;;;5061131;28;20223;-46
2023/12/29 03:54:49;;;;;;;26.65;4.95;;;10.40;99.90;;;;;;5061267;28;20182;-48
2023/12/29 03:57:15;;;;;;;33.33;4.78;;;10.40;99.90;;;;;;5059930;28;20198;-45
2023/12/29 03:59:41;;;;;;;32.92;5.38;;;10.40;99.90;;;;;;5061142;28;20205;-47
2023/12/29 04:02:07;;;;;;;31.67;5.40;;;10.40;99.90;;;;;;5061492;28;20202;-45
2023/12/29 04:04:37;;;;;;;29.77;5.80;;;10.30;99.90;;;;;;5060589;28;20178;-46
2023/12/29 04:07:03;;;;;;;30.42;4.25;;;10.30;99.90;;;;;;5077786;28;20607;-51
2023/12/29 04:09:29;;;;;;;24.95;4.47;;;10.30;99.90;;;;;;5063310;28;20292;-51
2023/12/29 04:11:54;;;;;;;24.58;4.10;;;10.30;99.90;;;;;;5060029;28;20261;-50
2023/12/29 04:14:21;;;;;;;28.90;4.78;;;10.30;99.90;;;;;;5057730;28;20191;-49
2023/12/29 04:16:48;;;;;;;24.45;4.50;;;10.30;99.90;;;;;;5061191;28;20190;-49
2023/12/29 04:19:14;;;;;;;28.20;5.63;;;10.30;99.90;;;;;;5077099;28;20197;-44
2023/12/29 04:21:39;;;;;;;32.10;4.82;;;10.30;99.90;;;;;;5062201;28;20226;-45
2023/12/29 04:24:05;;;;;;;35.80;5.40;;;10.30;99.90;;;;;;5061471;28;20195;-45
2023/12/29 04:26:38;;;;;;;24.63;4.35;;;10.30;99.90;;;;;;5061718;28;20738;-45
2023/12/29 04:29:03;;;;;;;29.13;4.93;;;10.40;99.90;;;;;;5060970;28;20703;-45
2023/12/29 04:31:29;;;;;;;30.55;5.45;;;10.40;99.90;;;;;;5060366;28;20194;-45
2023/12/29 04:33:55;;;;;;;35.65;5.57;;;10.40;99.90;;;;;;5060766;28;20191;-50
2023/12/29 04:36:21;;;;;;;29.85;5.35;;;10.40;99.90;;;;;;5060089;28;20709;-52
2023/12/29 04:38:47;;;;;;;33.33;5.25;;;10.30;99.90;;;;;;5044277;28;20194;-50
2023/12/29 04:41:13;;;;;;;30.15;5.13;;;10.30;99.90;;;;;;5061362;28;20190;-47
2023/12/29 04:43:39;;;;;;;30.02;5.93;;;10.30;99.90;;;;;;5062162;28;20248;-51
2023/12/29 04:46:05;;;;;;;28.10;5.20;;;10.40;99.90;;;;;;5047117;28;20191;-48
2023/12/29 04:48:31;;;;;;;28.85;4.72;;;10.30;99.90;;;;;;5061574;28;20214;-48
2023/12/29 04:50:56;;;;;;;30.67;5.50;;;10.30;99.90;;;;;;5077178;28;20183;-46
2023/12/29 04:53:22;;;;;;;28.58;4.63;;;10.30;99.90;;;;;;5061391;28;20243;-47
2023/12/29 04:55:48;;;;;;;28.17;4.90;;;10.30;99.90;;;;;;5061839;28;20958;-48
2023/12/29 04:58:14;;;;;;;28.27;4.95;;;10.30;99.90;;;;;;5061337;28;20723;-48
2023/12/29 05:00:40;;;;;;;24.90;4.88;;;10.30;99.90;;;;;;5061506;28;20567;-46
2023/12/29 05:03:06;;;;;;;25.67;4.43;;;10.30;99.90;;;;;;5062041;28;20191;-48
2023/12/29 05:05:32;;;;;;;27.05;4.80;;;10.30;99.90;;;;;;5058859;28;20193;-49
2023/12/29 05:07:57;;;;;;;24.23;4.82;;;10.30;99.90;;;;;;5061449;28;20244;-46
2023/12/29 05:10:23;;;;;;;26.35;4.25;;;10.30;99.90;;;;;;5063851;28;20251;-45
2023/12/29 05:12:49;;;;;;;29.33;5.18;;;10.40;99.90;;;;;;5065877;28;20194;-50
2023/12/29 05:15:15;;;;;;;25.88;4.38;;;10.40;99.90;;;;;;5064327;28;20235;-45
2023/12/29 05:17:41;;;;;;;22.50;4.63;;;10.40;99.90;;;;;;5065382;28;20200;-50
2023/12/29 05:20:08;;;;;;;29.27;4.40;;;10.40;99.90;;;;;;5065765;28;20271;-49
2023/12/29 05:22:34;;;;;;;26.05;4.03;;;10.40;99.90;;;;;;5064236;28;20282;-44
2023/12/29 05:25:00;;;;;;;28.77;4.47;;;10.40;99.90;;;;;;5065086;28;20844;-48
2023/12/29 05:27:26;;;;;;;30.70;4.75;;;10.40;99.90;;;;;;5066623;28;20259;-47
2023/12/29 05:29:52;;;;;;;41.80;5.82;;;10.40;99.90;;;;;;5063928;28;20374;-48
2023/12/29 05:32:18;;;;;;;32.65;5.40;;;10.40;99.90;;;;;;5064128;28;20277;-47
2023/12/29 05:34:44;;;;;;;28.88;5.30;;;10.40;99.90;;;;;;5065059;28;20201;-51
2023/12/29 05:37:10;;;;;;;34.88;5.10;;;10.50;99.90;;;;;;5065181;28;20186;-48
2023/12/29 05:39:36;;;;;;;29.50;5.18;;;10.50;99.90;;;;;;5063959;28;20719;-47
2023/12/29 05:42:02;;;;;;;34.33;5.20;;;10.50;99.90;;;;;;5049086;28;20265;-47
2023/12/29 05:44:28;;;;;;;31.73;5.50;;;10.50;99.90;;;;;;5064410;28;20194;-51
2023/12/29 05:46:54;;;;;;;29.35;4.53;;;10.50;99.90;;;;;;5064492;28;20233;-47
2023/12/29 05:49:25;;;;;;;33.65;5.45;;;10.50;99.90;;;;;;5063284;28;20331;-45
2023/12/29 05:51:52;;;;;;;27.30;4.80;;;10.50;99.90;;;;;;5062879;28;20195;-51
2023/12/29 05:54:17;;;;;;;33.35;5.22;;;10.50;99.90;;;;;;5064104;28;20183;-51
2023/12/29 05:56:44;;;;;;;36.78;4.93;;;10.50;99.90;;;;;;5064250;28;20252;-55
2023/12/29 05:59:09;;;;;;;32.60;5.22;;;10.60;99.90;;;;;;5065218;28;20534;-50
2023/12/29 06:01:35;;;;;;;24.55;4.32;;;10.60;99.90;;;;;;5064613;28;20255;-52
2023/12/29 06:04:01;;;;;;;40.38;5.03;;;10.60;99.90;;;;;;5063394;28;20301;-51
2023/12/29 06:06:27;;;;;;;25.00;4.32;;;10.60;99.90;;;;;;5062814;28;20741;-46
2023/12/29 06:08:54;;;;;;;28.23;4.85;;;10.60;99.90;;;;;;5054175;28;20190;-50
2023/12/29 06:11:20;;;;;;;30.40;4.85;;;10.60;99.90;;;;;;5062669;28;20178;-49
2023/12/29 06:13:46;;;;;;;23.25;4.72;;;10.60;99.90;;;;;;5065176;28;20213;-49
2023/12/29 06:16:19;;;;;;;23.35;4.13;;;10.60;99.90;;;;;;5065271;28;20265;-46
2023/12/29 06:18:46;;;;;;;25.83;4.18;;;10.70;99.90;;;;;;5062867;28;20261;-48
2023/12/29 06:21:12;;;;;;;28.02;4.43;;;10.60;99.90;;;;;;5062184;28;20220;-52
2023/12/29 06:23:38;;;;;;;39.05;5.10;;;10.60;99.90;;;;;;5064828;28;20287;-48
2023/12/29 06:26:03;;;;;;;30.67;4.97;;;10.60;99.90;;;;;;5063652;28;20182;-50
2023/12/29 06:28:29;;;;;;;35.88;4.85;;;10.60;99.90;;;;;;5064691;28;20661;-46
2023/12/29 06:30:55;;;;;;;28.23;3.92;;;10.50;99.90;;;;;;5063332;28;20191;-51
2023/12/29 06:33:21;;;;;;;28.25;4.60;;;10.50;99.90;;;;;;5063402;28;20198;-45
2023/12/29 06:35:48;;;;;;;24.30;4.15;;;10.40;99.90;;;;;;5063963;28;20185;-49
2023/12/29 06:38:14;;;;;;;23.88;4.28;;;10.40;99.90;;;;;;5062692;28;20201;-40
2023/12/29 06:40:40;;;;;;;28.05;4.05;;;10.30;99.90;;;;;;5063956;28;20508;-47
2023/12/29 06:43:06;;;;;;;26.10;4.93;;;10.30;99.90;;;;;;5045405;28;20641;-51
2023/12/29 06:45:32;;;;;;;20.98;4.28;;;10.30;99.90;;;;;;5062779;28;20194;-44
2023/12/29 06:47:58;;;;;;;29.10;4.53;;;10.30;99.90;;;;;;5062992;28;20209;-51
2023/12/29 06:50:24;;;;;;;21.63;4.10;;;10.20;99.90;;;;;;5063651;28;20218;-43
2023/12/29 06:52:50;;;;;;;20.02;4.05;;;10.20;99.90;;;;;;5063748;28;20236;-49
2023/12/29 06:55:15;;;;;;;32.08;4.38;;;10.10;99.90;;;;;;5062275;28;20185;-48
2023/12/29 06:57:41;;;;;;;37.20;5.22;;;10.10;99.90;;;;;;5064265;28;20244;-54
2023/12/29 07:00:08;;;;;;;28.90;4.18;;;10.00;99.90;;;;;;5063020;28;20217;-45
2023/12/29 07:02:33;;;;;;;35.58;4.65;;;10.00;99.90;;;;;;5063605;28;20222;-49
2023/12/29 07:04:59;;;;;;;28.90;4.57;;;10.00;99.90;;;;;;5044203;28;20619;-44
2023/12/29 07:07:25;;;;;;;25.60;5.00;;;10.00;99.90;;;;;;5063106;28;20683;-46
2023/12/29 07:09:51;;;;;;;31.08;4.72;;;10.00;99.90;;;;;;5063418;28;20639;-45
2023/12/29 07:12:18;;;;;;;37.72;5.15;;;10.00;99.90;;;;;;5060556;28;20239;-48
2023/12/29 07:14:44;;;;;;;35.20;4.70;;;10.00;99.90;;;;;;5061550;28;20201;-44
2023/12/29 07:17:10;;;;;;;25.83;3.80;;;10.00;99.90;;;;;;5063241;28;20187;-47
2023/12/29 07:19:36;;;;;;;31.67;4.90;;;10.00;99.90;;;;;;5063482;28;20190;-45
2023/12/29 07:22:04;;;;;;;34.40;4.60;;;10.00;99.90;;;;;;5061151;28;20217;-50
2023/12/29 07:24:32;;;;;;;30.23;4.50;;;9.90;99.90;;;;;;5062847;28;20297;-52
2023/12/29 07:26:57;;;;;;;30.38;5.18;;;10.00;99.90;;;;;;5063800;28;20220;-52
2023/12/29 07:29:23;;;;;;;31.98;4.82;;;10.00;99.90;;;;;;5061263;28;20190;-49
2023/12/29 07:31:49;;;;;;;25.45;3.95;;;10.00;99.90;;;;;;5062148;28;20183;-48
2023/12/29 07:34:15;;;;;;;30.58;5.10;;;10.10;99.90;;;;;;5060685;28;20211;-47
2023/12/29 07:36:41;;;;;;;34.92;4.80;;;10.10;99.90;;;;;;5060692;28;20213;-49
2023/12/29 07:39:07;;;;;;;39.78;5.35;;;9.90;99.90;;;;;;5061932;28;20285;-49
2023/12/29 07:41:34;;;;;;;30.63;4.80;;;9.70;99.90;;;;;;5064240;28;20230;-50
2023/12/29 07:43:59;;;;;;;37.05;4.95;;;9.50;99.90;;;;;;5061652;28;20182;-48
2023/12/29 07:46:26;;;;;;;36.70;5.10;;;9.40;99.90;;;;;;5061941;28;20630;-46
2023/12/29 07:48:52;;;;;;;32.88;4.75;;;9.30;99.90;;;;;;5063228;28;20213;-49
2023/12/29 07:51:18;;;;;;;41.05;5.55;;;9.30;99.90;;;;;;5061002;28;20197;-49
2023/12/29 07:53:44;;;;;;;26.33;4.75;;;9.30;99.90;;;;;;5062890;28;20179;-49
2023/12/29 07:56:10;;;;;;;31.60;4.72;;;9.30;99.90;;;;;;5064009;28;20188;-46
2023/12/29 07:58:36;;;;;;;42.67;5.82;;;9.30;99.90;;;;;;5062452;28;20218;-51
2023/12/29 08:01:02;;;;;;;24.83;4.90;;;9.30;99.90;;;;;;5061793;28;20230;-49
2023/12/29 08:03:28;;;;;;;37.03;4.55;;;9.30;99.90;;;;;;5062606;28;20182;-47
2023/12/29 08:05:54;;;;;;;28.52;5.03;;;9.30;99.90;;;;;;5062423;28;20543;-49
2023/12/29 08:08:20;;;;;;;35.88;4.95;;;9.40;99.90;;;;;;5061585;28;20209;-51
2023/12/29 08:10:46;;;;;;;30.40;4.88;;;9.40;99.90;;;;;;5061613;28;20205;-48
2023/12/29 08:13:12;;;;;;;31.25;5.15;;;9.50;99.90;;;;;;5061869;28;20182;-49
2023/12/29 08:15:37;;;;;;;40.40;5.10;;;9.50;99.90;;;;;;5063356;28;20317;-49
2023/12/29 08:18:04;;;;;;;34.95;5.13;;;9.50;99.90;;;;;;5059931;28;20194;-51
2023/12/29 08:20:30;;;;;;;40.17;5.78;;;9.50;99.90;;;;;;5062638;28;20181;-49
2023/12/29 08:22:59;;;;;;;34.63;5.50;;;9.50;99.90;;;;;;5063323;28;20198;-50
2023/12/29 08:25:24;;;;;;;33.47;5.22;;;9.60;99.90;;;;;;5060540;28;20191;-43
2023/12/29 08:27:50;;;;;;;29.55;4.75;;;9.60;99.90;;;;;;5061727;28;20212;-48
2023/12/29 08:30:16;;;;;;;24.88;4.65;;;9.60;99.90;;;;;;5062235;28;20277;-47
2023/12/29 08:32:42;;;;;;;28.08;4.63;;;9.60;99.90;;;;;;5062439;28;20182;-47
2023/12/29 08:35:08;;;;;;;36.03;5.30;;;9.60;99.90;;;;;;5062072;28;20194;-48
2023/12/29 08:37:34;;;;;;;26.05;4.88;;;9.70;99.90;;;;;;5059658;28;20354;-48
2023/12/29 08:40:00;;;;;;;29.38;5.38;;;9.70;99.90;;;;;;5060177;28;20673;-49
2023/12/29 08:42:27;;;;;;;35.97;5.60;;;9.70;99.90;;;;;;5061899;28;20913;-45
2023/12/29 08:44:53;;;;;;;31.42;4.72;;;9.70;99.90;;;;;;5062752;28;20225;-44
2023/12/29 08:47:19;;;;;;;37.15;5.55;;;9.70;99.90;;;;;;5064847;28;20245;-46
2023/12/29 08:49:46;;;;;;;31.23;5.20;;;9.70;99.90;;;;;;5063371;28;20707;-48
2023/12/29 08:52:12;;;;;;;34.60;4.55;;;9.80;99.90;;;;;;5065263;28;20866;-49
2023/12/29 08:54:38;;;;;;;30.13;4.50;;;9.80;99.90;;;;;;5064635;28;20655;-47
2023/12/29 08:57:04;;;;;;;32.47;5.15;;;9.80;99.90;;;;;;5065626;28;20193;-49
2023/12/29 08:59:30;;;;;;;28.80;4.60;;;9.80;99.90;;;;;;5061603;28;20198;-52
2023/12/29 09:01:56;;;;;;;27.98;5.15;;;9.80;99.90;;;;;;5064397;28;20548;-51
2023/12/29 09:04:22;;;;;;;26.98;4.93;;;9.80;99.90;;;;;;5065434;28;20668;-43
2023/12/29 09:06:47;;;;;;;39.78;4.88;;;9.90;99.90;;;;;;5065227;28;20218;-48
2023/12/29 09:09:14;;;;;;;32.95;5.63;;;9.90;99.90;;;;;;5063445;28;20236;-46
2023/12/29 09:11:41;;;;;;;27.77;4.80;;;9.90;99.90;;;;;;5065515;28;20194;-50
2023/12/29 09:14:07;;;;;;;31.40;4.82;;;9.90;99.90;;;;;;5064588;28;20231;-52
2023/12/29 09:16:35;;;;;;;35.00;5.22;;;9.90;99.90;;;;;;5065103;28;20248;-51
2023/12/29 09:19:01;;;;;;;34.85;4.97;;;9.90;99.90;;;;;;5065603;28;20241;-49
2023/12/29 09:21:27;;;;;;;27.33;4.93;;;9.90;99.90;;;;;;5064154;28;20187;-48
2023/12/29 09:23:53;;;;;;;31.45;4.63;;;9.90;99.90;;;;;;5064375;28;20210;-53
2023/12/29 09:26:19;;;;;;;28.48;4.57;;;9.90;99.90;;;;;;5064142;28;20187;-50
2023/12/29 09:28:45;;;;;;;37.97;5.28;;;10.00;99.90;;;;;;5062179;28;20217;-47
2023/12/29 09:31:11;;;;;;;26.60;4.47;;;10.00;99.90;;;;;;5065348;28;20557;-53
2023/12/29 09:33:37;;;;;;;33.42;5.28;;;10.00;99.90;;;;;;5064721;28;20608;-49
2023/12/29 09:36:04;;;;;;;26.30;4.68;;;10.00;99.90;;;;;;5063695;28;20210;-49
2023/12/29 09:38:30;;;;;;;31.52;4.88;;;10.10;99.90;;;;;;5064311;28;20665;-48
2023/12/29 09:41:04;;;;;;;27.02;4.53;;;10.20;99.90;;;;;;5066209;28;20193;-54
2023/12/29 09:43:31;;;;;;;26.05;4.40;;;10.10;99.90;;;;;;5064419;28;20430;-45
2023/12/29 09:45:58;;;;;;;26.27;4.53;;;10.20;99.90;;;;;;5064268;28;20194;-53
2023/12/29 09:48:26;;;;;;;37.67;5.30;;;10.20;99.90;;;;;;5065361;28;20908;-46
2023/12/29 09:50:53;;;;;;;29.25;5.28;;;10.20;99.90;;;;;;5062114;28;20248;-45
2023/12/29 09:53:21;;;;;;;28.40;4.53;;;10.30;99.90;;;;;;5064206;28;20951;-50
2023/12/29 09:55:52;;;;;;;34.50;4.38;;;10.30;99.90;;;;;;5062525;28;20679;-47
2023/12/29 09:58:21;;;;;;;26.95;4.72;;;10.30;99.90;;;;;;5063895;28;20200;-50
2023/12/29 10:00:49;;;;;;;27.27;4.20;;;10.30;99.90;;;;;;5065207;28;20651;-48
2023/12/29 10:03:15;;;;;;;24.90;4.28;;;10.30;99.90;;;;;;5064158;28;20212;-48
2023/12/29 10:05:41;;;;;;;28.77;4.60;;;10.40;99.90;;;;;;5063592;28;20201;-47
2023/12/29 10:08:09;;;;;;;27.35;4.20;;;10.40;99.90;;;;;;5064269;28;20615;-52
2023/12/29 10:10:38;;;;;;;31.42;4.47;;;10.40;99.90;;;;;;5063540;28;20260;-45
2023/12/29 10:13:06;;;;;;;31.85;4.50;;;10.50;99.90;;;;;;5062211;28;20232;-50
2023/12/29 10:15:50;;;;;;;23.60;4.38;;;10.50;99.90;;;;;;5065669;28;20285;-53
2023/12/29 10:18:39;;;;;;;26.23;4.53;;;10.60;99.90;;;;;;5063548;28;20182;-46
2023/12/29 10:21:21;;;;;;;25.80;4.20;;;10.60;99.90;;;;;;5064455;28;20198;-44
2023/12/29 10:23:58;;;;;;;21.15;3.95;;;10.70;99.90;;;;;;5063617;28;20225;-49
2023/12/29 10:26:25;;;;;;;23.67;4.28;;;10.70;99.90;;;;;;5062847;28;20293;-53
2023/12/29 10:28:52;;;;;;;22.25;4.13;;;10.70;99.90;;;;;;5063620;28;20214;-49
2023/12/29 10:31:18;;;;;;;31.13;5.20;;;10.70;99.90;;;;;;5064287;28;20608;-49
2023/12/29 10:33:43;;;;;;;17.60;2.58;;;10.70;99.90;;;;;;5061240;28;20195;-47
2023/12/29 10:36:10;;;;;;;20.42;3.58;;;10.80;99.90;;;;;;5064223;28;20217;-47
2023/12/29 10:38:41;;;;;;;23.52;3.35;;;10.80;99.90;;;;;;5079170;28;20226;-47
2023/12/29 10:41:16;;;;;;;21.17;2.97;;;10.80;99.90;;;;;;5043070;28;20209;-49
2023/12/29 10:43:43;;;;;;;19.13;3.22;;;10.80;99.90;;;;;;5063307;28;20209;-48
2023/12/29 10:46:10;;;;;;;14.20;3.20;;;10.80;99.90;;;;;;5062999;28;20213;-52
2023/12/29 10:48:37;;;;;;;16.52;3.08;;;10.80;99.90;;;;;;5064457;28;20619;-53
2023/12/29 10:51:04;;;;;;;24.50;3.80;;;10.70;99.90;;;;;;5061647;28;20217;-50
2023/12/29 10:53:36;;;;;;;17.08;3.35;;;10.70;99.90;;;;;;5063467;28;20182;-51
2023/12/29 10:56:02;;;;;;;21.70;3.20;;;10.70;99.90;;;;;;5064939;28;20190;-49
2023/12/29 10:58:31;;;;;;;18.55;3.55;;;10.60;99.90;;;;;;5062338;28;20197;-49
2023/12/29 11:00:57;;;;;;;26.45;3.58;;;10.60;99.90;;;;;;5062520;28;20198;-48
2023/12/29 11:03:24;;;;;;;18.75;3.10;;;10.50;99.90;;;;;;5061324;28;20198;-51
2023/12/29 11:05:51;;;;;;;16.83;2.88;;;10.50;99.90;;;;;;5063760;28;20189;-45
2023/12/29 11:08:21;;;;;;;12.50;2.90;;;10.50;99.90;;;;;;5061313;28;20206;-46
2023/12/29 11:10:50;;;;;;;14.00;3.38;;;10.50;99.90;;;;;;5062552;28;20581;-45
2023/12/29 11:13:16;;;;;;;23.05;3.65;;;10.50;99.90;;;;;;5063795;28;20278;-47
2023/12/29 11:15:45;;;;;;;15.30;2.70;;;10.50;99.90;;;;;;5062087;28;20647;-50
2023/12/29 11:18:16;;;;;;;16.75;2.80;;;10.50;99.90;;;;;;5062631;28;20186;-48
2023/12/29 11:20:43;;;;;;;12.05;2.50;;;10.50;99.90;;;;;;5063673;28;20186;-48
2023/12/29 11:23:13;;;;;;;19.00;2.70;;;10.50;99.90;;;;;;5062561;28;20227;-50
2023/12/29 11:25:39;;;;;;;22.45;3.88;;;10.40;99.90;;;;;;5062693;28;20192;-50
2023/12/29 11:28:11;;;;;;;20.70;3.80;;;10.40;99.90;;;;;;5061240;28;20691;-49
2023/12/29 11:30:39;;;;;;;20.60;3.58;;;10.40;99.90;;;;;;5065078;28;20205;-44
2023/12/29 11:33:10;;;;;;;20.80;3.60;;;10.30;99.90;;;;;;5061368;28;20275;-52
2023/12/29 11:35:48;;;;;;;17.75;3.13;;;10.30;99.90;;;;;;5060669;28;21418;-48
2023/12/29 11:38:40;;;;;;;19.65;3.03;;;10.40;99.90;;;;;;5062059;28;20186;-51
2023/12/29 11:41:24;;;;;;;19.80;4.22;;;10.30;99.90;;;;;;5060832;28;20193;-49
2023/12/29 11:43:57;;;;;;;18.33;3.47;;;10.30;99.90;;;;;;5062014;28;20271;-50
2023/12/29 11:46:42;;;;;;;23.00;3.97;;;10.30;99.90;;;;;;5061663;28;20197;-46
2023/12/29 11:49:09;;;;;;;17.33;3.35;;;10.30;99.90;;;;;;5062134;28;20234;-51
2023/12/29 11:51:51;;;;;;;17.75;3.20;;;10.40;99.90;;;;;;5059739;28;20190;-49
2023/12/29 11:54:27;;;;;;;10.13;2.65;;;10.40;99.90;;;;;;5060143;28;20718;-44
2023/12/29 11:56:54;;;;;;;17.35;3.00;;;10.50;99.90;;;;;;5061722;28;20661;-47
2023/12/29 11:59:24;;;;;;;16.10;3.28;;;10.50;99.90;;;;;;5043242;28;20179;-52
2023/12/29 12:01:55;;;;;;;23.27;3.35;;;10.60;99.90;;;;;;5061636;28;20178;-50
2023/12/29 12:04:35;;;;;;;22.38;2.60;;;10.70;99.90;;;;;;5062542;28;20267;-50
2023/12/29 12:07:02;;;;;;;18.90;2.80;;;10.80;99.90;;;;;;5060699;28;20205;-49
2023/12/29 12:09:28;;;;;;;16.52;3.22;;;10.90;99.90;;;;;;5061817;28;20185;-45
2023/12/29 12:11:54;;;;;;;15.50;3.30;;;10.90;99.90;;;;;;5062723;28;20242;-48
2023/12/29 12:14:43;;;;;;;14.40;2.63;;;11.00;99.90;;;;;;5060863;28;20189;-45
2023/12/29 12:17:10;;;;;;;21.98;3.17;;;11.10;99.90;;;;;;5061637;28;20544;-48
2023/12/29 12:19:36;;;;;;;15.80;3.03;;;11.10;99.90;;;;;;5062679;28;20635;-52
2023/12/29 12:22:03;;;;;;;17.77;3.10;;;11.10;99.90;;;;;;5067854;28;20532;-50
2023/12/29 12:24:29;;;;;;;18.80;3.00;;;11.10;99.90;;;;;;5064624;28;20194;-48
2023/12/29 12:26:55;;;;;;;16.90;3.25;;;11.10;99.90;;;;;;5064782;28;20209;-45
2023/12/29 12:29:21;;;;;;;19.20;3.60;;;11.00;99.90;;;;;;5066723;28;20185;-45
2023/12/29 12:31:53;;;;;;;20.23;3.10;;;11.00;99.90;;;;;;5064878;28;20214;-45
2023/12/29 12:34:20;;;;;;;16.45;3.42;;;10.90;99.90;;;;;;5066354;28;20218;-55
2023/12/29 12:36:56;;;;;;;11.38;2.60;;;10.80;99.90;;;;;;5064346;28;20228;-51
2023/12/29 12:39:23;;;;;;;17.20;3.10;;;10.80;99.90;;;;;;5066279;28;20198;-52